sensor_id;sensor_type;location;lat;lon;timestamp;temperature;humidity
74420;DHT22;62855;50.718;-2.460;2022-08-18T00:02:06;60.80;85.00
74420;DHT22;62855;50.718;-2.460;2022-08-18T00:04:48;60.80;85.00
74420;DHT22;62855;50.718;-2.460;2022-08-18T00:07:31;60.80;86.00
74420;DHT22;62855;50.718;-2.460;2022-08-18T00:10:12;60.80;86.00
74420;DHT22;62855;50.718;-2.460;2022-08-18T00:12:53;60.80;86.00
74420;DHT22;62855;50.718;-2.460;2022-08-18T00:15:34;60.80;86.00
74420;DHT22;62855;50.718;-2.460;2022-08-18T00:18:15;60.80;86.00
74420;DHT22;62855;50.718;-2.460;2022-08-18T00:20:55;60.80;86.00
74420;DHT22;62855;50.718;-2.460;2022-08-18T00:23:36;60.62;86.00
74420;DHT22;62855;50.718;-2.460;2022-08-18T00:26:17;60.62;86.00
74420;DHT22;62855;50.718;-2.460;2022-08-18T00:28:58;60.62;86.00
74420;DHT22;62855;50.718;-2.460;2022-08-18T00:31:42;60.62;86.00
74420;DHT22;62855;50.718;-2.460;2022-08-18T00:34:23;60.62;87.00
74420;DHT22;62855;50.718;-2.460;2022-08-18T00:37:04;60.62;87.00
74420;DHT22;62855;50.718;-2.460;2022-08-18T00:39:45;60.62;87.00
74420;DHT22;62855;50.718;-2.460;2022-08-18T00:42:27;60.62;87.00
74420;DHT22;62855;50.718;-2.460;2022-08-18T00:45:12;60.62;87.00
74420;DHT22;62855;50.718;-2.460;2022-08-18T00:47:54;60.62;87.00
74420;DHT22;62855;50.718;-2.460;2022-08-18T00:50:39;60.62;87.00
74420;DHT22;62855;50.718;-2.460;2022-08-18T00:53:25;60.62;87.00
74420;DHT22;62855;50.718;-2.460;2022-08-18T00:56:10;60.62;88.00
74420;DHT22;62855;50.718;-2.460;2022-08-18T00:58:57;60.80;88.00
74420;DHT22;62855;50.718;-2.460;2022-08-18T01:01:25;60.80;88.00
74420;DHT22;62855;50.718;-2.460;2022-08-18T01:04:12;60.80;88.00
74420;DHT22;62855;50.718;-2.460;2022-08-18T01:06:57;60.80;88.00
74420;DHT22;62855;50.718;-2.460;2022-08-18T01:09:39;60.80;88.00
74420;DHT22;62855;50.718;-2.460;2022-08-18T01:12:20;60.98;88.00
74420;DHT22;62855;50.718;-2.460;2022-08-18T01:15:02;60.98;88.00
74420;DHT22;62855;50.718;-2.460;2022-08-18T01:17:43;60.98;88.00
74420;DHT22;62855;50.718;-2.460;2022-08-18T01:20:28;60.98;88.00
74420;DHT22;62855;50.718;-2.460;2022-08-18T01:23:14;61.16;88.00
74420;DHT22;62855;50.718;-2.460;2022-08-18T01:25:56;61.16;88.00
74420;DHT22;62855;50.718;-2.460;2022-08-18T01:28:39;61.34;88.00
74420;DHT22;62855;50.718;-2.460;2022-08-18T01:31:34;61.34;88.00
74420;DHT22;62855;50.718;-2.460;2022-08-18T01:33:55;61.34;88.00
74420;DHT22;62855;50.718;-2.460;2022-08-18T01:36:38;61.34;87.00
74420;DHT22;62855;50.718;-2.460;2022-08-18T01:39:20;61.34;87.00
74420;DHT22;62855;50.718;-2.460;2022-08-18T01:42:02;61.34;87.00
74420;DHT22;62855;50.718;-2.460;2022-08-18T01:44:43;61.34;87.00
74420;DHT22;62855;50.718;-2.460;2022-08-18T01:47:25;61.34;86.00
74420;DHT22;62855;50.718;-2.460;2022-08-18T01:50:07;61.34;86.00
74420;DHT22;62855;50.718;-2.460;2022-08-18T01:52:48;61.34;86.00
74420;DHT22;62855;50.718;-2.460;2022-08-18T01:55:29;61.16;87.00
74420;DHT22;62855;50.718;-2.460;2022-08-18T01:58:11;61.16;87.00
74420;DHT22;62855;50.718;-2.460;2022-08-18T02:00:57;61.16;87.00
74420;DHT22;62855;50.718;-2.460;2022-08-18T02:03:42;61.16;87.00
74420;DHT22;62855;50.718;-2.460;2022-08-18T02:06:25;61.16;87.00
74420;DHT22;62855;50.718;-2.460;2022-08-18T02:09:06;61.16;87.00
74420;DHT22;62855;50.718;-2.460;2022-08-18T02:11:47;61.16;87.00
74420;DHT22;62855;50.718;-2.460;2022-08-18T02:14:28;61.16;87.00
74420;DHT22;62855;50.718;-2.460;2022-08-18T02:17:10;61.16;87.00
74420;DHT22;62855;50.718;-2.460;2022-08-18T02:19:52;61.16;87.00
74420;DHT22;62855;50.718;-2.460;2022-08-18T02:22:33;61.34;87.00
74420;DHT22;62855;50.718;-2.460;2022-08-18T02:25:15;61.34;87.00
74420;DHT22;62855;50.718;-2.460;2022-08-18T02:27:56;61.34;87.00
74420;DHT22;62855;50.718;-2.460;2022-08-18T02:30:41;61.34;87.00
74420;DHT22;62855;50.718;-2.460;2022-08-18T02:33:22;61.34;87.00
74420;DHT22;62855;50.718;-2.460;2022-08-18T02:36:04;61.34;87.00
74420;DHT22;62855;50.718;-2.460;2022-08-18T02:38:45;61.34;87.00
74420;DHT22;62855;50.718;-2.460;2022-08-18T02:41:26;61.34;87.00
74420;DHT22;62855;50.718;-2.460;2022-08-18T02:44:08;61.34;87.00
74420;DHT22;62855;50.718;-2.460;2022-08-18T02:46:51;61.34;87.00
74420;DHT22;62855;50.718;-2.460;2022-08-18T02:49:33;61.34;87.00
74420;DHT22;62855;50.718;-2.460;2022-08-18T02:52:14;61.16;86.00
74420;DHT22;62855;50.718;-2.460;2022-08-18T02:54:55;61.16;86.00
74420;DHT22;62855;50.718;-2.460;2022-08-18T02:57:41;61.16;86.00
74420;DHT22;62855;50.718;-2.460;2022-08-18T03:00:24;61.16;86.00
74420;DHT22;62855;50.718;-2.460;2022-08-18T03:03:06;60.98;87.00
74420;DHT22;62855;50.718;-2.460;2022-08-18T03:05:47;60.98;87.00
74420;DHT22;62855;50.718;-2.460;2022-08-18T03:08:28;60.98;87.00
74420;DHT22;62855;50.718;-2.460;2022-08-18T03:11:08;60.98;87.00
74420;DHT22;62855;50.718;-2.460;2022-08-18T03:13:50;60.98;87.00
74420;DHT22;62855;50.718;-2.460;2022-08-18T03:16:32;60.98;87.00
74420;DHT22;62855;50.718;-2.460;2022-08-18T03:19:13;61.16;87.00
74420;DHT22;62855;50.718;-2.460;2022-08-18T03:21:56;61.16;87.00
74420;DHT22;62855;50.718;-2.460;2022-08-18T03:24:37;61.16;87.00
74420;DHT22;62855;50.718;-2.460;2022-08-18T03:27:18;61.16;87.00
74420;DHT22;62855;50.718;-2.460;2022-08-18T03:29:58;61.16;87.00
74420;DHT22;62855;50.718;-2.460;2022-08-18T03:32:43;61.16;87.00
74420;DHT22;62855;50.718;-2.460;2022-08-18T03:35:24;61.16;87.00
74420;DHT22;62855;50.718;-2.460;2022-08-18T03:38:05;61.16;87.00
74420;DHT22;62855;50.718;-2.460;2022-08-18T03:40:50;61.16;87.00
74420;DHT22;62855;50.718;-2.460;2022-08-18T03:43:31;61.16;87.00
74420;DHT22;62855;50.718;-2.460;2022-08-18T03:46:14;60.98;87.00
74420;DHT22;62855;50.718;-2.460;2022-08-18T03:48:56;60.98;87.00
74420;DHT22;62855;50.718;-2.460;2022-08-18T03:51:41;60.98;87.00
74420;DHT22;62855;50.718;-2.460;2022-08-18T03:54:23;60.98;87.00
74420;DHT22;62855;50.718;-2.460;2022-08-18T03:57:04;60.98;87.00
74420;DHT22;62855;50.718;-2.460;2022-08-18T03:59:47;60.98;87.00
74420;DHT22;62855;50.718;-2.460;2022-08-18T04:02:31;60.80;87.00
74420;DHT22;62855;50.718;-2.460;2022-08-18T04:05:12;60.80;87.00
74420;DHT22;62855;50.718;-2.460;2022-08-18T04:07:53;60.98;87.00
74420;DHT22;62855;50.718;-2.460;2022-08-18T04:10:34;60.98;87.00
74420;DHT22;62855;50.718;-2.460;2022-08-18T04:13:15;60.98;87.00
74420;DHT22;62855;50.718;-2.460;2022-08-18T04:15:58;60.98;87.00
74420;DHT22;62855;50.718;-2.460;2022-08-18T04:18:39;60.98;87.00
74420;DHT22;62855;50.718;-2.460;2022-08-18T04:21:20;60.98;87.00
74420;DHT22;62855;50.718;-2.460;2022-08-18T04:24:02;60.80;87.00
74420;DHT22;62855;50.718;-2.460;2022-08-18T04:26:46;60.80;88.00
74420;DHT22;62855;50.718;-2.460;2022-08-18T04:29:27;60.80;88.00
74420;DHT22;62855;50.718;-2.460;2022-08-18T04:32:13;60.80;88.00
74420;DHT22;62855;50.718;-2.460;2022-08-18T04:34:54;60.80;88.00
74420;DHT22;62855;50.718;-2.460;2022-08-18T04:37:36;60.98;88.00
74420;DHT22;62855;50.718;-2.460;2022-08-18T04:40:17;60.98;88.00
74420;DHT22;62855;50.718;-2.460;2022-08-18T04:42:58;60.80;88.00
74420;DHT22;62855;50.718;-2.460;2022-08-18T04:45:39;60.80;88.00
74420;DHT22;62855;50.718;-2.460;2022-08-18T04:48:20;60.80;88.00
74420;DHT22;62855;50.718;-2.460;2022-08-18T04:51:03;60.80;88.00
74420;DHT22;62855;50.718;-2.460;2022-08-18T04:53:45;60.62;88.00
74420;DHT22;62855;50.718;-2.460;2022-08-18T04:56:29;60.62;88.00
74420;DHT22;62855;50.718;-2.460;2022-08-18T04:59:12;60.62;88.00
74420;DHT22;62855;50.718;-2.460;2022-08-18T05:02:00;60.44;88.00
74420;DHT22;62855;50.718;-2.460;2022-08-18T05:04:42;60.44;88.00
74420;DHT22;62855;50.718;-2.460;2022-08-18T05:07:22;60.44;88.00
74420;DHT22;62855;50.718;-2.460;2022-08-18T05:10:04;60.44;88.00
74420;DHT22;62855;50.718;-2.460;2022-08-18T05:12:46;60.44;89.00
74420;DHT22;62855;50.718;-2.460;2022-08-18T05:15:27;60.44;89.00
74420;DHT22;62855;50.718;-2.460;2022-08-18T05:18:08;60.44;89.00
74420;DHT22;62855;50.718;-2.460;2022-08-18T05:20:50;60.44;89.00
74420;DHT22;62855;50.718;-2.460;2022-08-18T05:23:31;60.44;89.00
74420;DHT22;62855;50.718;-2.460;2022-08-18T05:26:12;60.62;90.00
74420;DHT22;62855;50.718;-2.460;2022-08-18T05:28:54;60.62;90.00
74420;DHT22;62855;50.718;-2.460;2022-08-18T05:31:38;60.08;90.00
74420;DHT22;62855;50.718;-2.460;2022-08-18T05:34:20;60.08;90.00
74420;DHT22;62855;50.718;-2.460;2022-08-18T05:37:13;60.08;90.00
74420;DHT22;62855;50.718;-2.460;2022-08-18T05:39:53;60.26;90.00
74420;DHT22;62855;50.718;-2.460;2022-08-18T05:42:17;60.08;90.00
74420;DHT22;62855;50.718;-2.460;2022-08-18T05:45:00;60.08;90.00
74420;DHT22;62855;50.718;-2.460;2022-08-18T05:47:43;60.08;90.00
74420;DHT22;62855;50.718;-2.460;2022-08-18T05:50:24;60.08;89.00
74420;DHT22;62855;50.718;-2.460;2022-08-18T05:53:08;60.08;89.00
74420;DHT22;62855;50.718;-2.460;2022-08-18T05:55:56;60.08;89.00
74420;DHT22;62855;50.718;-2.460;2022-08-18T05:58:44;60.08;89.00
74420;DHT22;62855;50.718;-2.460;2022-08-18T06:01:15;60.08;90.00
74420;DHT22;62855;50.718;-2.460;2022-08-18T06:04:01;60.26;90.00
74420;DHT22;62855;50.718;-2.460;2022-08-18T06:06:43;60.26;90.00
74420;DHT22;62855;50.718;-2.460;2022-08-18T06:09:31;60.26;86.00
74420;DHT22;62855;50.718;-2.460;2022-08-18T06:12:21;60.44;85.00
74420;DHT22;62855;50.718;-2.460;2022-08-18T06:14:44;60.44;84.00
74420;DHT22;62855;50.718;-2.460;2022-08-18T06:17:40;60.44;83.00
74420;DHT22;62855;50.718;-2.460;2022-08-18T06:20:07;60.44;83.00
74420;DHT22;62855;50.718;-2.460;2022-08-18T06:23:01;60.44;82.00
74420;DHT22;62855;50.718;-2.460;2022-08-18T06:25:32;60.62;81.00
74420;DHT22;62855;50.718;-2.460;2022-08-18T06:28:15;60.62;81.00
74420;DHT22;62855;50.718;-2.460;2022-08-18T06:31:04;60.80;81.00
74420;DHT22;62855;50.718;-2.460;2022-08-18T06:33:55;60.80;81.00
74420;DHT22;62855;50.718;-2.460;2022-08-18T06:36:27;60.98;80.00
74420;DHT22;62855;50.718;-2.460;2022-08-18T06:39:01;61.16;79.00
74420;DHT22;62855;50.718;-2.460;2022-08-18T06:41:45;61.34;78.00
74420;DHT22;62855;50.718;-2.460;2022-08-18T06:44:30;61.34;76.00
74420;DHT22;62855;50.718;-2.460;2022-08-18T06:47:19;61.52;74.00
74420;DHT22;62855;50.718;-2.460;2022-08-18T06:49:50;61.70;73.00
74420;DHT22;62855;50.718;-2.460;2022-08-18T06:52:37;62.06;72.00
74420;DHT22;62855;50.718;-2.460;2022-08-18T06:55:32;62.24;71.00
74420;DHT22;62855;50.718;-2.460;2022-08-18T06:57:56;62.42;70.00
74420;DHT22;62855;50.718;-2.460;2022-08-18T07:00:43;62.78;70.00
74420;DHT22;62855;50.718;-2.460;2022-08-18T07:03:42;62.96;70.00
74420;DHT22;62855;50.718;-2.460;2022-08-18T07:06:07;63.32;70.00
74420;DHT22;62855;50.718;-2.460;2022-08-18T07:08:50;63.50;70.00
74420;DHT22;62855;50.718;-2.460;2022-08-18T07:11:32;63.50;70.00
74420;DHT22;62855;50.718;-2.460;2022-08-18T07:14:19;63.68;70.00
74420;DHT22;62855;50.718;-2.460;2022-08-18T07:17:10;63.68;71.00
74420;DHT22;62855;50.718;-2.460;2022-08-18T07:19:32;63.68;71.00
74420;DHT22;62855;50.718;-2.460;2022-08-18T07:22:14;63.68;72.00
74420;DHT22;62855;50.718;-2.460;2022-08-18T07:24:57;63.50;72.00
74420;DHT22;62855;50.718;-2.460;2022-08-18T07:27:44;63.50;72.00
74420;DHT22;62855;50.718;-2.460;2022-08-18T07:30:32;63.68;73.00
74420;DHT22;62855;50.718;-2.460;2022-08-18T07:33:17;63.86;74.00
74420;DHT22;62855;50.718;-2.460;2022-08-18T07:36:03;64.04;75.00
74420;DHT22;62855;50.718;-2.460;2022-08-18T07:38:49;64.22;75.00
74420;DHT22;62855;50.718;-2.460;2022-08-18T07:41:37;64.76;75.00
74420;DHT22;62855;50.718;-2.460;2022-08-18T07:44:23;65.12;75.00
74420;DHT22;62855;50.718;-2.460;2022-08-18T07:47:11;65.84;73.00
74420;DHT22;62855;50.718;-2.460;2022-08-18T07:49:54;66.38;72.00
74420;DHT22;62855;50.718;-2.460;2022-08-18T07:52:38;66.92;72.00
74420;DHT22;62855;50.718;-2.460;2022-08-18T07:55:26;67.10;71.00
74420;DHT22;62855;50.718;-2.460;2022-08-18T07:57:24;67.10;70.00
74420;DHT22;62855;50.718;-2.460;2022-08-18T08:00:22;66.92;69.00
74420;DHT22;62855;50.718;-2.460;2022-08-18T08:02:52;66.56;68.00
74420;DHT22;62855;50.718;-2.460;2022-08-18T08:05:20;66.20;69.00
74420;DHT22;62855;50.718;-2.460;2022-08-18T08:08:13;66.20;70.00
74420;DHT22;62855;50.718;-2.460;2022-08-18T08:10:42;66.38;70.00
74420;DHT22;62855;50.718;-2.460;2022-08-18T08:13:15;66.56;69.00
74420;DHT22;62855;50.718;-2.460;2022-08-18T08:15:47;66.74;68.00
74420;DHT22;62855;50.718;-2.460;2022-08-18T08:18:14;67.10;69.00
74420;DHT22;62855;50.718;-2.460;2022-08-18T08:21:02;67.64;69.00
74420;DHT22;62855;50.718;-2.460;2022-08-18T08:23:49;68.18;68.00
74420;DHT22;62855;50.718;-2.460;2022-08-18T08:26:42;68.54;68.00
74420;DHT22;62855;50.718;-2.460;2022-08-18T08:29:15;68.90;67.00
74420;DHT22;62855;50.718;-2.460;2022-08-18T08:31:48;69.26;68.00
74420;DHT22;62855;50.718;-2.460;2022-08-18T08:34:34;69.44;69.00
74420;DHT22;62855;50.718;-2.460;2022-08-18T08:37:23;69.62;67.00
74420;DHT22;62855;50.718;-2.460;2022-08-18T08:40:14;69.62;62.00
74420;DHT22;62855;50.718;-2.460;2022-08-18T08:42:59;69.80;61.00
74420;DHT22;62855;50.718;-2.460;2022-08-18T08:45:45;69.80;60.00
74420;DHT22;62855;50.718;-2.460;2022-08-18T08:48:30;69.44;60.00
74420;DHT22;62855;50.718;-2.460;2022-08-18T08:51:26;69.44;60.00
74420;DHT22;62855;50.718;-2.460;2022-08-18T08:53:50;69.62;60.00
74420;DHT22;62855;50.718;-2.460;2022-08-18T08:56:38;69.98;60.00
74420;DHT22;62855;50.718;-2.460;2022-08-18T08:59:21;70.16;59.00
74420;DHT22;62855;50.718;-2.460;2022-08-18T09:06:24;71.42;58.00
74420;DHT22;62855;50.718;-2.460;2022-08-18T09:09:01;71.42;59.00
74420;DHT22;62855;50.718;-2.460;2022-08-18T09:11:46;71.60;59.00
74420;DHT22;62855;50.718;-2.460;2022-08-18T09:14:36;71.78;57.00
74420;DHT22;62855;50.718;-2.460;2022-08-18T09:16:51;71.78;56.00
74420;DHT22;62855;50.718;-2.460;2022-08-18T09:19:29;71.96;56.00
74420;DHT22;62855;50.718;-2.460;2022-08-18T09:21:59;71.96;55.00
74420;DHT22;62855;50.718;-2.460;2022-08-18T09:24:45;71.96;55.00
74420;DHT22;62855;50.718;-2.460;2022-08-18T09:27:36;71.78;55.00
74420;DHT22;62855;50.718;-2.460;2022-08-18T09:30:00;71.60;56.00
74420;DHT22;62855;50.718;-2.460;2022-08-18T09:33:02;71.60;56.00
74420;DHT22;62855;50.718;-2.460;2022-08-18T09:35:42;71.60;56.00
74420;DHT22;62855;50.718;-2.460;2022-08-18T09:38:09;71.60;56.00
74420;DHT22;62855;50.718;-2.460;2022-08-18T09:41:04;71.78;56.00
74420;DHT22;62855;50.718;-2.460;2022-08-18T09:43:31;71.78;57.00
74420;DHT22;62855;50.718;-2.460;2022-08-18T09:51:38;72.86;55.00
74420;DHT22;62855;50.718;-2.460;2022-08-18T09:54:21;73.04;54.00
74420;DHT22;62855;50.718;-2.460;2022-08-18T09:57:15;73.22;55.00
74420;DHT22;62855;50.718;-2.460;2022-08-18T09:59:51;73.22;54.00
74420;DHT22;62855;50.718;-2.460;2022-08-18T10:04:47;73.04;56.00
74420;DHT22;62855;50.718;-2.460;2022-08-18T10:07:31;73.22;57.00
74420;DHT22;62855;50.718;-2.460;2022-08-18T10:10:20;73.58;57.00
74420;DHT22;62855;50.718;-2.460;2022-08-18T10:13:08;73.76;55.00
74420;DHT22;62855;50.718;-2.460;2022-08-18T10:15:42;73.76;54.00
74420;DHT22;62855;50.718;-2.460;2022-08-18T10:18:21;73.58;54.00
74420;DHT22;62855;50.718;-2.460;2022-08-18T10:20:55;73.58;54.00
74420;DHT22;62855;50.718;-2.460;2022-08-18T10:23:48;73.58;54.00
74420;DHT22;62855;50.718;-2.460;2022-08-18T10:25:50;73.58;54.00
74420;DHT22;62855;50.718;-2.460;2022-08-18T10:28:52;73.58;54.00
74420;DHT22;62855;50.718;-2.460;2022-08-18T10:31:18;73.58;54.00
74420;DHT22;62855;50.718;-2.460;2022-08-18T10:34:04;73.76;54.00
74420;DHT22;62855;50.718;-2.460;2022-08-18T10:36:50;73.94;54.00
74420;DHT22;62855;50.718;-2.460;2022-08-18T10:39:43;73.94;54.00
74420;DHT22;62855;50.718;-2.460;2022-08-18T10:42:10;73.94;54.00
74420;DHT22;62855;50.718;-2.460;2022-08-18T10:45:04;73.94;53.00
74420;DHT22;62855;50.718;-2.460;2022-08-18T10:47:29;73.76;53.00
74420;DHT22;62855;50.718;-2.460;2022-08-18T10:50:18;73.76;53.00
74420;DHT22;62855;50.718;-2.460;2022-08-18T10:53:07;73.58;53.00
74420;DHT22;62855;50.718;-2.460;2022-08-18T10:55:44;73.58;53.00
74420;DHT22;62855;50.718;-2.460;2022-08-18T10:58:20;73.58;53.00
74420;DHT22;62855;50.718;-2.460;2022-08-18T11:01:00;73.76;53.00
74420;DHT22;62855;50.718;-2.460;2022-08-18T11:03:34;73.76;52.00
74420;DHT22;62855;50.718;-2.460;2022-08-18T11:06:02;73.76;52.00
74420;DHT22;62855;50.718;-2.460;2022-08-18T11:08:47;73.76;53.00
74420;DHT22;62855;50.718;-2.460;2022-08-18T11:11:33;73.58;53.00
74420;DHT22;62855;50.718;-2.460;2022-08-18T11:14:27;73.76;54.00
74420;DHT22;62855;50.718;-2.460;2022-08-18T11:16:57;73.94;54.00
74420;DHT22;62855;50.718;-2.460;2022-08-18T11:19:21;73.94;54.00
74420;DHT22;62855;50.718;-2.460;2022-08-18T11:22:03;74.12;54.00
74420;DHT22;62855;50.718;-2.460;2022-08-18T11:24:44;74.30;53.00
74420;DHT22;62855;50.718;-2.460;2022-08-18T11:40:24;74.48;53.00
74420;DHT22;62855;50.718;-2.460;2022-08-18T11:42:53;74.66;52.00
74420;DHT22;62855;50.718;-2.460;2022-08-18T11:45:49;74.66;52.00
74420;DHT22;62855;50.718;-2.460;2022-08-18T11:48:17;74.48;52.00
74420;DHT22;62855;50.718;-2.460;2022-08-18T11:51:01;74.30;52.00
74420;DHT22;62855;50.718;-2.460;2022-08-18T11:53:51;73.94;52.00
74420;DHT22;62855;50.718;-2.460;2022-08-18T11:56:34;73.76;52.00
74420;DHT22;62855;50.718;-2.460;2022-08-18T11:59:29;73.94;52.00
74420;DHT22;62855;50.718;-2.460;2022-08-18T12:01:55;73.94;53.00
74420;DHT22;62855;50.718;-2.460;2022-08-18T12:04:39;73.94;53.00
74420;DHT22;62855;50.718;-2.460;2022-08-18T12:07:28;73.94;53.00
74420;DHT22;62855;50.718;-2.460;2022-08-18T12:10:18;73.94;53.00
74420;DHT22;62855;50.718;-2.460;2022-08-18T12:12:44;74.12;53.00
74420;DHT22;62855;50.718;-2.460;2022-08-18T12:15:28;74.12;53.00
74420;DHT22;62855;50.718;-2.460;2022-08-18T12:18:10;74.12;53.00
74420;DHT22;62855;50.718;-2.460;2022-08-18T12:20:51;73.76;53.00
74420;DHT22;62855;50.718;-2.460;2022-08-18T12:23:32;73.76;54.00
74420;DHT22;62855;50.718;-2.460;2022-08-18T12:35:03;73.22;56.00
74420;DHT22;62855;50.718;-2.460;2022-08-18T12:37:44;73.22;56.00
74420;DHT22;62855;50.718;-2.460;2022-08-18T12:40:25;73.22;57.00
74420;DHT22;62855;50.718;-2.460;2022-08-18T12:43:06;73.04;59.00
74420;DHT22;62855;50.718;-2.460;2022-08-18T12:45:47;73.04;59.00
74420;DHT22;62855;50.718;-2.460;2022-08-18T12:48:29;72.68;59.00
74420;DHT22;62855;50.718;-2.460;2022-08-18T12:51:10;72.32;59.00
74420;DHT22;62855;50.718;-2.460;2022-08-18T12:53:51;72.14;59.00
74420;DHT22;62855;50.718;-2.460;2022-08-18T12:56:32;71.78;60.00
74420;DHT22;62855;50.718;-2.460;2022-08-18T12:59:13;71.78;59.00
74420;DHT22;62855;50.718;-2.460;2022-08-18T13:01:58;71.96;59.00
74420;DHT22;62855;50.718;-2.460;2022-08-18T13:04:38;72.32;59.00
74420;DHT22;62855;50.718;-2.460;2022-08-18T13:07:19;72.50;59.00
74420;DHT22;62855;50.718;-2.460;2022-08-18T13:10:00;72.68;59.00
74420;DHT22;62855;50.718;-2.460;2022-08-18T13:12:41;72.86;58.00
74420;DHT22;62855;50.718;-2.460;2022-08-18T13:15:22;72.86;58.00
74420;DHT22;62855;50.718;-2.460;2022-08-18T13:18:03;72.86;59.00
74420;DHT22;62855;50.718;-2.460;2022-08-18T13:20:44;72.86;59.00
74420;DHT22;62855;50.718;-2.460;2022-08-18T13:23:25;73.04;59.00
74420;DHT22;62855;50.718;-2.460;2022-08-18T13:26:08;72.86;58.00
74420;DHT22;62855;50.718;-2.460;2022-08-18T13:28:52;72.68;58.00
74420;DHT22;62855;50.718;-2.460;2022-08-18T13:31:39;72.32;58.00
74420;DHT22;62855;50.718;-2.460;2022-08-18T13:34:20;72.32;58.00
74420;DHT22;62855;50.718;-2.460;2022-08-18T13:37:01;72.14;59.00
74420;DHT22;62855;50.718;-2.460;2022-08-18T13:39:41;72.32;60.00
74420;DHT22;62855;50.718;-2.460;2022-08-18T13:42:22;72.32;59.00
74420;DHT22;62855;50.718;-2.460;2022-08-18T13:45:04;72.32;58.00
74420;DHT22;62855;50.718;-2.460;2022-08-18T13:47:46;72.50;60.00
74420;DHT22;62855;50.718;-2.460;2022-08-18T13:50:27;72.68;58.00
74420;DHT22;62855;50.718;-2.460;2022-08-18T13:53:12;72.68;58.00
74420;DHT22;62855;50.718;-2.460;2022-08-18T13:55:55;72.50;57.00
74420;DHT22;62855;50.718;-2.460;2022-08-18T13:58:36;72.50;58.00
74420;DHT22;62855;50.718;-2.460;2022-08-18T14:01:22;72.68;58.00
74420;DHT22;62855;50.718;-2.460;2022-08-18T14:04:02;72.86;57.00
74420;DHT22;62855;50.718;-2.460;2022-08-18T14:06:44;72.68;56.00
74420;DHT22;62855;50.718;-2.460;2022-08-18T14:09:26;72.50;57.00
74420;DHT22;62855;50.718;-2.460;2022-08-18T14:12:13;72.32;57.00
74420;DHT22;62855;50.718;-2.460;2022-08-18T14:14:56;72.14;57.00
74420;DHT22;62855;50.718;-2.460;2022-08-18T14:17:37;71.96;57.00
74420;DHT22;62855;50.718;-2.460;2022-08-18T14:20:18;72.14;58.00
74420;DHT22;62855;50.718;-2.460;2022-08-18T14:23:01;71.96;58.00
74420;DHT22;62855;50.718;-2.460;2022-08-18T14:25:42;71.78;59.00
74420;DHT22;62855;50.718;-2.460;2022-08-18T14:28:24;71.78;60.00
74420;DHT22;62855;50.718;-2.460;2022-08-18T14:31:10;71.42;60.00
74420;DHT22;62855;50.718;-2.460;2022-08-18T14:33:51;71.24;63.00
74420;DHT22;62855;50.718;-2.460;2022-08-18T14:36:32;71.24;63.00
74420;DHT22;62855;50.718;-2.460;2022-08-18T14:39:13;71.42;60.00
74420;DHT22;62855;50.718;-2.460;2022-08-18T14:41:54;71.42;61.00
74420;DHT22;62855;50.718;-2.460;2022-08-18T14:44:35;71.96;61.00
74420;DHT22;62855;50.718;-2.460;2022-08-18T14:47:16;72.50;60.00
74420;DHT22;62855;50.718;-2.460;2022-08-18T14:49:58;72.68;60.00
74420;DHT22;62855;50.718;-2.460;2022-08-18T14:52:40;72.68;59.00
74420;DHT22;62855;50.718;-2.460;2022-08-18T14:55:22;72.50;59.00
74420;DHT22;62855;50.718;-2.460;2022-08-18T14:58:03;72.32;59.00
74420;DHT22;62855;50.718;-2.460;2022-08-18T15:00:48;72.32;60.00
74420;DHT22;62855;50.718;-2.460;2022-08-18T15:03:29;72.32;60.00
74420;DHT22;62855;50.718;-2.460;2022-08-18T15:06:10;71.78;59.00
74420;DHT22;62855;50.718;-2.460;2022-08-18T15:08:51;71.42;60.00
74420;DHT22;62855;50.718;-2.460;2022-08-18T15:11:32;71.42;61.00
74420;DHT22;62855;50.718;-2.460;2022-08-18T15:14:13;71.24;63.00
74420;DHT22;62855;50.718;-2.460;2022-08-18T15:16:54;70.88;64.00
74420;DHT22;62855;50.718;-2.460;2022-08-18T15:19:35;70.52;64.00
74420;DHT22;62855;50.718;-2.460;2022-08-18T15:22:16;70.34;65.00
74420;DHT22;62855;50.718;-2.460;2022-08-18T15:24:57;70.16;65.00
74420;DHT22;62855;50.718;-2.460;2022-08-18T15:27:38;69.98;66.00
74420;DHT22;62855;50.718;-2.460;2022-08-18T15:30:23;69.98;66.00
74420;DHT22;62855;50.718;-2.460;2022-08-18T15:33:04;69.80;67.00
74420;DHT22;62855;50.718;-2.460;2022-08-18T15:35:46;69.62;67.00
74420;DHT22;62855;50.718;-2.460;2022-08-18T15:38:26;69.44;67.00
74420;DHT22;62855;50.718;-2.460;2022-08-18T15:41:08;69.08;68.00
74420;DHT22;62855;50.718;-2.460;2022-08-18T15:43:49;68.72;68.00
74420;DHT22;62855;50.718;-2.460;2022-08-18T15:46:32;68.54;69.00
74420;DHT22;62855;50.718;-2.460;2022-08-18T15:49:14;68.18;69.00
74420;DHT22;62855;50.718;-2.460;2022-08-18T15:51:55;68.18;70.00
74420;DHT22;62855;50.718;-2.460;2022-08-18T15:54:35;68.00;70.00
74420;DHT22;62855;50.718;-2.460;2022-08-18T15:57:16;68.00;70.00
74420;DHT22;62855;50.718;-2.460;2022-08-18T15:59:59;68.00;70.00
74420;DHT22;62855;50.718;-2.460;2022-08-18T16:02:48;68.18;70.00
74420;DHT22;62855;50.718;-2.460;2022-08-18T16:05:31;68.18;70.00
74420;DHT22;62855;50.718;-2.460;2022-08-18T16:08:12;68.00;70.00
74420;DHT22;62855;50.718;-2.460;2022-08-18T16:10:53;67.82;70.00
74420;DHT22;62855;50.718;-2.460;2022-08-18T16:13:35;67.64;70.00
74420;DHT22;62855;50.718;-2.460;2022-08-18T16:16:18;67.46;71.00
74420;DHT22;62855;50.718;-2.460;2022-08-18T16:18:59;67.28;71.00
74420;DHT22;62855;50.718;-2.460;2022-08-18T16:21:40;67.10;71.00
74420;DHT22;62855;50.718;-2.460;2022-08-18T16:24:21;67.10;72.00
74420;DHT22;62855;50.718;-2.460;2022-08-18T16:27:02;67.10;72.00
74420;DHT22;62855;50.718;-2.460;2022-08-18T16:29:43;67.10;72.00
74420;DHT22;62855;50.718;-2.460;2022-08-18T16:32:29;66.92;72.00
74420;DHT22;62855;50.718;-2.460;2022-08-18T16:35:10;66.74;73.00
74420;DHT22;62855;50.718;-2.460;2022-08-18T16:37:51;66.74;73.00
74420;DHT22;62855;50.718;-2.460;2022-08-18T16:40:32;66.74;74.00
74420;DHT22;62855;50.718;-2.460;2022-08-18T16:43:13;66.56;74.00
74420;DHT22;62855;50.718;-2.460;2022-08-18T16:45:53;66.38;75.00
74420;DHT22;62855;50.718;-2.460;2022-08-18T16:48:34;66.02;76.00
74420;DHT22;62855;50.718;-2.460;2022-08-18T16:51:18;65.84;77.00
74420;DHT22;62855;50.718;-2.460;2022-08-18T16:53:59;65.66;79.00
74420;DHT22;62855;50.718;-2.460;2022-08-18T16:56:40;65.30;80.00
74420;DHT22;62855;50.718;-2.460;2022-08-18T16:59:21;65.12;80.00
74420;DHT22;62855;50.718;-2.460;2022-08-18T17:02:07;64.94;81.00
74420;DHT22;62855;50.718;-2.460;2022-08-18T17:04:49;64.76;82.00
74420;DHT22;62855;50.718;-2.460;2022-08-18T17:07:32;64.58;82.00
74420;DHT22;62855;50.718;-2.460;2022-08-18T17:10:13;64.58;83.00
74420;DHT22;62855;50.718;-2.460;2022-08-18T17:12:55;64.58;83.00
74420;DHT22;62855;50.718;-2.460;2022-08-18T17:15:36;64.40;84.00
74420;DHT22;62855;50.718;-2.460;2022-08-18T17:18:17;64.40;84.00